createdAt,value
2023-04-10T00:00:46.208Z,98664.06
2023-04-10T00:03:15.471Z,98661.83
2023-04-10T00:05:45.043Z,98659.52
2023-04-10T00:08:13.314Z,98660.17
2023-04-10T00:10:42.325Z,98659.13
2023-04-10T00:13:10.669Z,98660.13
2023-04-10T00:15:40.258Z,98658.59
2023-04-10T00:18:08.398Z,98660.19
2023-04-10T00:20:43.749Z,98657.64
2023-04-10T00:23:22.099Z,98658.50
2023-04-10T00:25:50.938Z,98658.02
2023-04-10T00:28:19.810Z,98658.30
2023-04-10T00:30:52.651Z,98656.77
2023-04-10T00:33:22.361Z,98655.91
2023-04-10T00:35:52.673Z,98659.36
2023-04-10T00:38:22.588Z,98656.39
2023-04-10T00:40:52.738Z,98655.76
2023-04-10T00:43:22.017Z,98655.04
2023-04-10T00:45:50.860Z,98655.75
2023-04-10T00:48:23.566Z,98659.79
2023-04-10T00:50:52.363Z,98658.05
2023-04-10T00:53:22.955Z,98660.29
2023-04-10T00:55:51.074Z,98660.02
2023-04-10T00:58:19.364Z,98659.03
2023-04-10T01:00:52.807Z,98658.70
2023-04-10T01:03:22.110Z,98659.40
2023-04-10T01:06:35.223Z,98657.24
2023-04-10T01:09:30.811Z,98656.10
2023-04-10T01:12:40.832Z,98652.10
2023-04-10T01:15:16.394Z,98646.73
2023-04-10T01:18:06.518Z,98644.55
2023-04-10T01:20:36.248Z,98644.91
2023-04-10T01:23:07.484Z,98640.64
2023-04-10T01:25:49.903Z,98638.38
2023-04-10T01:28:20.064Z,98640.48
2023-04-10T01:30:51.211Z,98635.77
2023-04-10T01:33:21.552Z,98639.96
2023-04-10T01:35:50.748Z,98634.79
2023-04-10T01:38:19.558Z,98630.92
2023-04-10T01:40:51.130Z,98632.17
2023-04-10T01:43:27.123Z,98627.17
2023-04-10T01:45:56.041Z,98625.27
2023-04-10T01:48:24.204Z,98629.05
2023-04-10T01:50:53.089Z,98621.73
2023-04-10T01:53:21.650Z,98619.05
2023-04-10T01:55:50.593Z,98610.39
2023-04-10T01:58:18.995Z,98611.42
2023-04-10T02:00:49.672Z,98612.40
2023-04-10T02:03:18.631Z,98613.11
2023-04-10T02:06:15.637Z,98614.30
2023-04-10T02:08:55.921Z,98614.19
2023-04-10T02:11:37.890Z,98612.70
2023-04-10T02:14:10.179Z,98608.52
2023-04-10T02:16:41.174Z,98606.63
2023-04-10T02:19:10.705Z,98600.63
2023-04-10T02:21:45.318Z,98601.70
2023-04-10T02:24:14.847Z,98594.34
2023-04-10T02:26:51.205Z,98594.69
2023-04-10T02:29:24.437Z,98591.84
2023-04-10T02:31:53.266Z,98590.04
2023-04-10T02:34:21.460Z,98584.55
2023-04-10T02:36:50.056Z,98588.89
2023-04-10T02:39:19.560Z,98586.05
2023-04-10T02:41:49.906Z,98585.04
2023-04-10T02:44:18.900Z,98582.73
2023-04-10T02:46:47.272Z,98584.47
2023-04-10T02:49:15.987Z,98584.34
2023-04-10T02:51:44.289Z,98579.96
2023-04-10T02:54:13.193Z,98578.50
2023-04-10T02:56:41.860Z,98575.88
2023-04-10T02:59:10.090Z,98573.13
2023-04-10T03:01:39.780Z,98570.27
2023-04-10T03:04:08.338Z,98571.92
2023-04-10T03:06:41.054Z,98571.77
2023-04-10T03:09:09.722Z,98569.73
2023-04-10T03:11:37.989Z,98569.73
2023-04-10T03:14:11.966Z,98563.86
2023-04-10T03:16:44.087Z,98561.60
2023-04-10T03:19:12.893Z,98558.55
2023-04-10T03:21:41.087Z,98556.38
2023-04-10T03:24:09.243Z,98563.74
2023-04-10T03:26:39.816Z,98560.80
2023-04-10T03:29:08.012Z,98561.44
2023-04-10T03:31:36.172Z,98563.75
2023-04-10T03:34:04.543Z,98565.51
2023-04-10T03:36:33.174Z,98563.61
2023-04-10T03:39:01.475Z,98561.36
2023-04-10T03:41:31.069Z,98561.60
2023-04-10T03:43:59.179Z,98562.80
2023-04-10T03:46:27.406Z,98559.98
2023-04-10T03:48:56.013Z,98556.02
2023-04-10T03:51:24.922Z,98556.23
2023-04-10T03:53:53.634Z,98557.94
2023-04-10T03:56:22.893Z,98556.54
2023-04-10T03:58:55.120Z,98554.92
2023-04-10T04:01:24.686Z,98556.38
2023-04-10T04:03:57.817Z,98552.73
2023-04-10T04:06:43.778Z,98548.16
2023-04-10T04:09:27.032Z,98550.45
2023-04-10T04:12:20.903Z,98554.02
2023-04-10T04:15:04.752Z,98548.73
2023-04-10T04:17:46.591Z,98551.17
2023-04-10T04:20:41.733Z,98552.50
2023-04-10T04:23:18.406Z,98550.71
2023-04-10T04:26:08.911Z,98551.13
2023-04-10T04:28:57.445Z,98550.92
2023-04-10T04:31:40.612Z,98549.95
2023-04-10T04:34:33.559Z,98550.34
2023-04-10T04:37:17.295Z,98556.34
2023-04-10T04:40:11.990Z,98553.61
2023-04-10T04:42:58.514Z,98555.10
2023-04-10T04:45:49.823Z,98556.85
2023-04-10T04:48:51.984Z,98550.69
2023-04-10T04:51:26.295Z,98553.30
2023-04-10T04:54:17.572Z,98552.64
2023-04-10T04:56:54.292Z,98554.25
2023-04-10T04:59:30.251Z,98556.23
2023-04-10T05:02:06.870Z,98557.14
2023-04-10T05:04:56.404Z,98556.71
2023-04-10T05:07:45.925Z,98556.42
2023-04-10T05:10:28.212Z,98557.59
2023-04-10T05:14:01.927Z,98555.58
2023-04-10T05:16:39.080Z,98560.33
2023-04-10T05:19:35.077Z,98564.67
2023-04-10T05:22:25.260Z,98565.42
2023-04-10T05:25:08.682Z,98563.09
2023-04-10T05:27:57.629Z,98561.64
2023-04-10T05:30:43.677Z,98563.73
2023-04-10T05:33:30.541Z,98563.23
2023-04-10T05:36:18.616Z,98566.11
2023-04-10T05:38:56.192Z,98565.47
2023-04-10T05:41:36.897Z,98561.95
2023-04-10T05:44:29.377Z,98558.90
2023-04-10T05:47:21.514Z,98561.17
2023-04-10T05:50:03.419Z,98559.38
2023-04-10T05:52:52.258Z,98558.80
2023-04-10T05:55:38.489Z,98558.22
2023-04-10T05:58:47.597Z,98556.83
2023-04-10T06:01:15.994Z,98554.06
2023-04-10T06:03:55.387Z,98553.20
2023-04-10T06:06:27.008Z,98550.96
2023-04-10T06:08:57.699Z,98553.34
2023-04-10T06:11:26.364Z,98551.15
2023-04-10T06:13:56.507Z,98550.02
2023-04-10T06:16:32.409Z,98552.16
2023-04-10T06:19:02.279Z,98550.48
2023-04-10T06:21:31.892Z,98549.37
2023-04-10T06:24:01.006Z,98548.48
2023-04-10T06:26:29.479Z,98550.70
2023-04-10T06:28:57.897Z,98548.10
2023-04-10T06:31:28.276Z,98551.21
2023-04-10T06:34:29.365Z,98551.88
2023-04-10T06:37:01.892Z,98552.54
2023-04-10T06:39:30.649Z,98551.46
2023-04-10T06:41:59.020Z,98550.30
2023-04-10T06:44:42.348Z,98549.96
2023-04-10T06:47:11.132Z,98548.98
2023-04-10T06:49:44.090Z,98546.85
2023-04-10T06:52:12.353Z,98547.89
2023-04-10T06:54:40.842Z,98543.86
2023-04-10T06:57:08.941Z,98543.48
2023-04-10T06:59:39.465Z,98546.14
2023-04-10T07:02:08.429Z,98545.87
2023-04-10T07:04:36.941Z,98548.02
2023-04-10T07:07:10.074Z,98545.65
2023-04-10T07:09:39.891Z,98546.52
2023-04-10T07:12:08.118Z,98548.89
2023-04-10T07:14:44.757Z,98548.85
2023-04-10T07:17:12.864Z,98547.02
2023-04-10T07:19:43.023Z,98548.23
2023-04-10T07:22:12.766Z,98550.00
2023-04-10T07:24:43.073Z,98551.06
2023-04-10T07:27:13.146Z,98556.37
2023-04-10T07:29:48.052Z,98554.69
2023-04-10T07:32:19.459Z,98555.01
2023-04-10T07:34:48.597Z,98553.18
2023-04-10T07:37:26.024Z,98550.52
2023-04-10T07:39:54.503Z,98554.92
2023-04-10T07:42:23.198Z,98555.02
2023-04-10T07:44:53.338Z,98556.55
2023-04-10T07:47:21.647Z,98559.48
2023-04-10T07:49:51.376Z,98559.85
2023-04-10T07:52:21.255Z,98563.63
2023-04-10T07:54:49.648Z,98564.02
2023-04-10T07:57:24.787Z,98559.46
2023-04-10T07:59:54.711Z,98560.39
2023-04-10T08:02:23.066Z,98561.73
2023-04-10T08:04:55.250Z,98563.83
2023-04-10T08:07:23.985Z,98560.43
2023-04-10T08:09:55.261Z,98559.06
2023-04-10T08:12:23.959Z,98561.77
2023-04-10T08:14:52.327Z,98559.55
2023-04-10T08:17:22.818Z,98558.67
2023-04-10T08:19:53.064Z,98557.11
2023-04-10T08:22:21.963Z,98555.50
2023-04-10T08:24:55.933Z,98555.05
2023-04-10T08:27:43.944Z,98553.41
2023-04-10T08:30:13.133Z,98555.99
2023-04-10T08:32:48.135Z,98557.52
2023-04-10T08:35:23.099Z,98554.26
2023-04-10T08:38:07.588Z,98553.06
2023-04-10T08:40:41.421Z,98558.95
2023-04-10T08:43:13.124Z,98553.80
2023-04-10T08:45:43.857Z,98553.02
2023-04-10T08:48:14.622Z,98554.74
2023-04-10T08:50:44.431Z,98552.48
2023-04-10T08:53:14.582Z,98553.36
2023-04-10T08:55:45.972Z,98551.79
2023-04-10T08:58:19.293Z,98551.18
2023-04-10T09:00:47.608Z,98551.61
2023-04-10T09:03:17.281Z,98548.89
2023-04-10T09:05:48.323Z,98550.33
2023-04-10T09:08:17.119Z,98546.95
2023-04-10T09:10:48.461Z,98548.05
2023-04-10T09:13:40.420Z,98543.91
2023-04-10T09:16:11.468Z,98550.49
2023-04-10T09:18:48.953Z,98546.06
2023-04-10T09:21:20.993Z,98545.93
2023-04-10T09:23:49.196Z,98548.39
2023-04-10T09:26:31.151Z,98550.63
2023-04-10T09:29:02.246Z,98552.38
2023-04-10T09:31:32.668Z,98551.75
2023-04-10T09:34:09.738Z,98548.91
2023-04-10T09:36:38.951Z,98548.58
2023-04-10T09:39:11.485Z,98546.77
2023-04-10T09:41:50.491Z,98543.45
2023-04-10T09:44:31.368Z,98545.17
2023-04-10T09:47:22.170Z,98545.76
2023-04-10T09:49:52.671Z,98545.23
2023-04-10T09:52:35.029Z,98543.95
2023-04-10T09:55:10.130Z,98546.02
2023-04-10T09:57:38.385Z,98543.30
2023-04-10T10:00:10.263Z,98545.98
2023-04-10T10:02:40.308Z,98543.23
2023-04-10T10:05:09.566Z,98542.15
2023-04-10T10:07:42.228Z,98544.64
2023-04-10T10:10:12.151Z,98543.23
2023-04-10T10:12:44.967Z,98543.60
2023-04-10T10:15:37.411Z,98539.19
2023-04-10T10:18:09.061Z,98538.09
2023-04-10T10:20:38.333Z,98536.67
2023-04-10T10:23:07.775Z,98535.64
2023-04-10T10:25:37.972Z,98533.41
2023-04-10T10:28:06.751Z,98533.25
2023-04-10T10:30:35.818Z,98535.00
2023-04-10T10:33:07.120Z,98535.10
2023-04-10T10:35:36.213Z,98533.73
2023-04-10T10:38:04.873Z,98536.72
2023-04-10T10:40:58.310Z,98535.87
2023-04-10T10:43:47.065Z,98536.91
2023-04-10T10:46:29.070Z,98532.05
2023-04-10T10:48:58.411Z,98536.54
2023-04-10T10:51:52.110Z,98533.69
2023-04-10T10:54:31.544Z,98535.51
2023-04-10T10:57:09.316Z,98533.03
2023-04-10T10:59:44.107Z,98530.92
2023-04-10T11:02:19.181Z,98533.27
2023-04-10T11:04:49.074Z,98529.82
2023-04-10T11:07:17.255Z,98529.88
2023-04-10T11:09:51.657Z,98532.10
2023-04-10T11:16:12.439Z,98531.33
2023-04-10T11:24:22.357Z,98528.60
2023-04-10T11:26:50.992Z,98525.41
2023-04-10T11:30:34.936Z,98526.21
2023-04-10T11:33:04.192Z,98527.23
2023-04-10T11:35:33.027Z,98525.90
2023-04-10T11:38:15.539Z,98524.41
2023-04-10T11:43:14.360Z,98518.64
2023-04-10T11:45:42.919Z,98519.75
2023-04-10T11:48:11.246Z,98514.27
2023-04-10T11:50:39.541Z,98513.37
2023-04-10T11:53:22.001Z,98511.09
2023-04-10T11:55:50.405Z,98510.94
2023-04-10T11:58:29.070Z,98509.64
2023-04-10T12:01:00.826Z,98507.83
2023-04-10T12:03:37.396Z,98505.55
2023-04-10T12:06:13.908Z,98503.91
2023-04-10T12:08:51.448Z,98503.27
2023-04-10T12:11:29.897Z,98504.80
2023-04-10T12:13:59.128Z,98501.27
2023-04-10T12:16:28.170Z,98499.69
2023-04-10T12:19:03.459Z,98499.07
2023-04-10T12:21:31.938Z,98495.48
2023-04-10T12:24:01.893Z,98494.20
2023-04-10T12:26:30.551Z,98488.88
2023-04-10T12:28:58.958Z,98488.77
2023-04-10T12:31:33.051Z,98488.97
2023-04-10T12:34:02.319Z,98485.70
2023-04-10T12:36:32.236Z,98480.98
2023-04-10T12:39:04.266Z,98478.40
2023-04-10T12:41:34.024Z,98477.57
2023-04-10T12:44:13.897Z,98473.23
2023-04-10T12:46:44.649Z,98463.69
2023-04-10T12:49:16.783Z,98464.15
2023-04-10T12:51:50.676Z,98459.55
2023-04-10T12:54:36.530Z,98462.89
2023-04-10T12:57:06.693Z,98457.30
2023-04-10T12:59:36.129Z,98454.77
2023-04-10T13:02:07.639Z,98452.61
2023-04-10T13:04:46.968Z,98451.55
2023-04-10T13:07:16.060Z,98451.87
2023-04-10T13:09:46.687Z,98453.92
2023-04-10T13:12:19.771Z,98456.66
2023-04-10T13:14:51.077Z,98453.77
2023-04-10T13:17:19.186Z,98449.98
2023-04-10T13:19:50.900Z,98450.42
2023-04-10T13:22:19.641Z,98446.61
2023-04-10T13:24:47.824Z,98443.77
2023-04-10T13:27:16.734Z,98438.86
2023-04-10T13:29:46.192Z,98439.29
2023-04-10T13:32:14.423Z,98438.20
2023-04-10T13:34:43.287Z,98444.48
2023-04-10T13:37:13.336Z,98441.73
2023-04-10T13:39:43.816Z,98440.67
2023-04-10T13:42:13.594Z,98438.63
2023-04-10T13:44:41.842Z,98434.32
2023-04-10T13:47:15.121Z,98427.98
2023-04-10T13:49:44.936Z,98426.52
2023-04-10T13:52:13.447Z,98429.21
2023-04-10T13:54:44.269Z,98430.47
2023-04-10T13:57:12.563Z,98428.23
2023-04-10T13:59:44.899Z,98425.25
2023-04-10T14:02:14.201Z,98426.84
2023-04-10T14:12:31.382Z,98408.34
2023-04-10T14:15:19.625Z,98405.59
2023-04-10T14:17:47.941Z,98404.61
2023-04-10T14:20:18.430Z,98403.91
2023-04-10T14:22:47.813Z,98406.09
2023-04-10T14:25:16.298Z,98410.16
2023-04-10T14:27:47.053Z,98407.66
2023-04-10T14:30:15.292Z,98405.38
2023-04-10T14:32:44.020Z,98405.15
2023-04-10T14:35:12.389Z,98404.23
2023-04-10T14:37:40.762Z,98402.73
2023-04-10T14:40:09.625Z,98404.84
2023-04-10T14:42:38.518Z,98406.87
2023-04-10T14:45:10.865Z,98407.58
2023-04-10T14:47:41.977Z,98408.71
2023-04-10T14:50:10.896Z,98408.30
2023-04-10T14:52:39.476Z,98403.61
2023-04-10T14:55:07.907Z,98407.21
2023-04-10T14:57:38.183Z,98405.14
2023-04-10T15:00:08.150Z,98399.89
2023-04-10T15:02:38.596Z,98399.92
2023-04-10T15:05:09.941Z,98402.11
2023-04-10T15:07:39.189Z,98400.49
2023-04-10T15:10:07.899Z,98402.13
2023-04-10T15:12:43.738Z,98400.10
2023-04-10T15:15:12.642Z,98401.08
2023-04-10T15:17:41.514Z,98396.96
2023-04-10T15:20:12.381Z,98395.61
2023-04-10T15:22:43.094Z,98396.36
2023-04-10T15:25:12.358Z,98392.08
2023-04-10T15:27:42.442Z,98397.09
2023-04-10T15:30:11.108Z,98390.40
2023-04-10T15:32:39.396Z,98389.83
2023-04-10T15:35:08.563Z,98388.06
2023-04-10T15:37:37.467Z,98386.76
2023-04-10T15:40:10.711Z,98386.98
2023-04-10T15:42:39.691Z,98387.70
2023-04-10T15:45:08.196Z,98387.02
2023-04-10T15:47:36.981Z,98385.25
2023-04-10T15:50:07.587Z,98383.83
2023-04-10T15:52:38.687Z,98384.54
2023-04-10T15:55:07.318Z,98383.75
2023-04-10T15:57:41.970Z,98383.02
2023-04-10T16:00:11.338Z,98385.27
2023-04-10T16:02:39.710Z,98386.35
2023-04-10T16:05:10.389Z,98389.19
2023-04-10T16:07:42.299Z,98387.14
2023-04-10T16:10:11.494Z,98389.23
2023-04-10T16:12:41.064Z,98389.95
2023-04-10T16:15:10.242Z,98389.65
2023-04-10T16:17:41.125Z,98385.80
2023-04-10T16:20:12.780Z,98386.84
2023-04-10T16:22:46.591Z,98383.48
2023-04-10T16:25:14.676Z,98382.27
2023-04-10T16:27:44.360Z,98380.05
2023-04-10T16:30:13.226Z,98379.54
2023-04-10T16:32:43.840Z,98382.06
2023-04-10T16:35:13.440Z,98377.98
2023-04-10T16:37:41.662Z,98382.84
2023-04-10T16:40:12.939Z,98382.91
2023-04-10T16:42:43.014Z,98385.09
2023-04-10T16:45:11.900Z,98386.96
2023-04-10T16:47:40.668Z,98386.97
2023-04-10T16:50:11.363Z,98386.41
2023-04-10T16:52:49.551Z,98387.60
2023-04-10T16:55:18.662Z,98386.84
2023-04-10T16:57:47.031Z,98387.11
2023-04-10T17:00:16.450Z,98386.36
2023-04-10T17:02:45.270Z,98385.59
2023-04-10T17:05:14.968Z,98389.46
2023-04-10T17:07:45.124Z,98392.91
2023-04-10T17:10:14.171Z,98388.68
2023-04-10T17:26:46.074Z,98400.23
2023-04-10T17:31:49.396Z,98405.84
2023-04-10T17:34:17.646Z,98410.30
2023-04-10T17:36:49.439Z,98410.08
2023-04-10T17:39:18.131Z,98408.00
2023-04-10T17:41:52.960Z,98410.75
2023-04-10T17:52:51.275Z,98413.57
2023-04-10T17:55:24.469Z,98417.48
2023-04-10T17:57:54.327Z,98412.29
2023-04-10T18:00:27.160Z,98413.52
2023-04-10T18:03:01.072Z,98414.91
2023-04-10T18:12:41.125Z,98419.75
2023-04-10T18:15:10.653Z,98420.94
2023-04-10T18:17:47.318Z,98428.23
2023-04-10T18:20:16.111Z,98424.27
2023-04-10T18:22:47.609Z,98424.84
2023-04-10T18:25:16.500Z,98425.46
2023-04-10T18:28:04.593Z,98428.16
2023-04-10T18:30:39.252Z,98428.80
2023-04-10T18:33:14.248Z,98428.13
2023-04-10T18:35:42.569Z,98425.52
2023-04-10T18:38:13.578Z,98429.32
2023-04-10T18:40:46.416Z,98423.48
2023-04-10T18:43:19.331Z,98426.55
2023-04-10T18:45:47.617Z,98428.48
2023-04-10T18:48:19.621Z,98432.84
2023-04-10T18:50:53.731Z,98433.02
2023-04-10T18:53:27.455Z,98433.39
2023-04-10T18:55:56.899Z,98436.66
2023-04-10T18:58:30.099Z,98431.25
2023-04-10T19:00:58.401Z,98434.48
2023-04-10T19:03:30.915Z,98433.15
2023-04-10T19:06:02.226Z,98434.84
2023-04-10T19:08:34.139Z,98434.95
2023-04-10T19:11:09.200Z,98436.65
2023-04-10T19:13:38.752Z,98434.77
2023-04-10T19:16:14.626Z,98434.83
2023-04-10T19:18:45.770Z,98436.44
2023-04-10T19:21:31.981Z,98443.98
2023-04-10T19:24:00.623Z,98440.27
2023-04-10T19:26:29.521Z,98439.41
2023-04-10T19:28:59.126Z,98437.48
2023-04-10T19:31:52.083Z,98440.63
2023-04-10T19:34:23.842Z,98443.77
2023-04-10T19:36:59.287Z,98438.08
2023-04-10T19:39:29.863Z,98432.23
2023-04-10T19:42:03.546Z,98434.02
2023-04-10T19:44:37.590Z,98437.05
2023-04-10T19:47:11.232Z,98434.75
2023-04-10T19:49:40.369Z,98436.27
2023-04-10T19:52:08.812Z,98438.77
2023-04-10T19:54:45.265Z,98435.61
2023-04-10T19:57:14.296Z,98435.66
2023-04-10T19:59:50.078Z,98432.55
2023-04-10T20:02:18.592Z,98432.89
2023-04-10T20:04:48.678Z,98435.79
2023-04-10T20:07:24.679Z,98434.66
2023-04-10T20:09:55.457Z,98433.78
2023-04-10T20:12:23.625Z,98431.70
2023-04-10T20:15:02.897Z,98432.80
2023-04-10T20:17:36.339Z,98429.67
2023-04-10T20:20:07.641Z,98427.17
2023-04-10T20:22:40.593Z,98431.28
2023-04-10T20:25:11.680Z,98432.40
2023-04-10T20:27:40.101Z,98433.19
2023-04-10T20:30:15.464Z,98429.91
2023-04-10T20:32:43.914Z,98424.88
2023-04-10T20:35:12.439Z,98420.67
2023-04-10T20:37:43.797Z,98418.58
2023-04-10T20:40:13.275Z,98419.73
2023-04-10T20:42:43.178Z,98414.10
2023-04-10T20:45:12.443Z,98413.48
2023-04-10T20:47:41.135Z,98413.04
2023-04-10T20:50:11.463Z,98410.86
2023-04-10T20:52:41.290Z,98408.23
2023-04-10T20:55:10.755Z,98405.98
2023-04-10T20:57:39.629Z,98405.27
2023-04-10T21:00:08.995Z,98409.73
2023-04-10T21:02:38.011Z,98414.00
2023-04-10T21:05:06.538Z,98410.52
2023-04-10T21:07:36.548Z,98411.29
2023-04-10T21:10:07.019Z,98407.77
2023-04-10T21:12:35.401Z,98402.98
2023-04-10T21:15:07.747Z,98401.42
2023-04-10T21:17:36.383Z,98403.46
2023-04-10T21:20:05.110Z,98405.45
2023-04-10T21:22:33.498Z,98410.17
2023-04-10T21:25:01.747Z,98403.60
2023-04-10T21:27:30.087Z,98405.84
2023-04-10T21:29:58.506Z,98409.98
2023-04-10T21:32:27.036Z,98412.88
2023-04-10T21:34:57.034Z,98414.61
2023-04-10T21:37:25.780Z,98414.38
2023-04-10T21:39:54.032Z,98418.29
2023-04-10T21:42:22.286Z,98417.27
2023-04-10T21:44:50.700Z,98417.17
2023-04-10T21:47:18.831Z,98417.23
2023-04-10T21:49:47.776Z,98415.11
2023-04-10T21:52:19.847Z,98411.49
2023-04-10T21:54:49.451Z,98404.49
2023-04-10T21:57:19.912Z,98403.30
2023-04-10T21:59:48.840Z,98399.71
2023-04-10T22:02:17.046Z,98396.42
2023-04-10T22:04:54.065Z,98398.77
2023-04-10T22:07:23.157Z,98395.03
2023-04-10T22:09:51.341Z,98391.88
2023-04-10T22:12:19.671Z,98390.77
2023-04-10T22:14:56.890Z,98392.56
2023-04-10T22:17:25.825Z,98390.20
2023-04-10T22:19:53.916Z,98386.46
2023-04-10T22:22:22.202Z,98382.52
2023-04-10T22:24:51.016Z,98384.89
2023-04-10T22:27:21.279Z,98388.45
2023-04-10T22:30:02.093Z,98384.71
2023-04-10T22:32:32.600Z,98385.61
2023-04-10T22:35:02.768Z,98382.41
2023-04-10T22:37:31.928Z,98381.17
2023-04-10T22:40:03.076Z,98378.63
2023-04-10T22:42:32.073Z,98382.44
2023-04-10T22:45:00.461Z,98378.04
2023-04-10T22:47:28.884Z,98378.35
2023-04-10T22:49:57.157Z,98370.67
2023-04-10T22:52:27.278Z,98370.02
2023-04-10T22:54:55.531Z,98370.24
2023-04-10T22:57:24.031Z,98371.70
2023-04-10T22:59:52.454Z,98373.10
2023-04-10T23:02:20.832Z,98369.95
2023-04-10T23:04:49.341Z,98373.19
2023-04-10T23:07:18.378Z,98370.30
2023-04-10T23:09:46.880Z,98369.43
2023-04-10T23:12:18.067Z,98367.80
2023-04-10T23:14:46.926Z,98365.54
2023-04-10T23:17:15.312Z,98362.42
2023-04-10T23:19:45.872Z,98359.80
2023-04-10T23:22:15.672Z,98356.77
2023-04-10T23:24:43.717Z,98352.05
2023-04-10T23:27:13.192Z,98353.73
2023-04-10T23:29:42.128Z,98351.59
2023-04-10T23:32:10.439Z,98348.16
2023-04-10T23:34:42.335Z,98350.82
2023-04-10T23:37:10.924Z,98344.25
2023-04-10T23:39:39.618Z,98340.80
2023-04-10T23:42:09.066Z,98338.73
2023-04-10T23:44:38.014Z,98333.19
2023-04-10T23:47:08.615Z,98334.29
2023-04-10T23:49:38.244Z,98332.03
2023-04-10T23:52:06.471Z,98334.01
2023-04-10T23:54:43.083Z,98332.99
2023-04-10T23:57:11.634Z,98331.75
2023-04-10T23:59:39.871Z,98333.71
